createdAt,value
2022-08-11T00:00:15.370Z,101634.19
2022-08-11T00:01:10.641Z,101634.75
2022-08-11T00:01:59.541Z,101635.00
2022-08-11T00:02:51.173Z,101634.16
2022-08-11T00:03:48.637Z,101624.69
2022-08-11T00:04:39.220Z,101631.97
2022-08-11T00:05:25.812Z,101638.63
2022-08-11T00:06:15.390Z,101623.03
2022-08-11T00:07:06.771Z,101634.06
2022-08-11T00:07:57.169Z,101627.31
2022-08-11T00:08:50.476Z,101629.69
2022-08-11T00:09:40.220Z,101634.00
2022-08-11T00:10:29.879Z,101627.81
2022-08-11T00:11:18.099Z,101626.19
2022-08-11T00:12:14.711Z,101625.91
2022-08-11T00:13:05.004Z,101624.56
2022-08-11T00:13:52.196Z,101626.41
2022-08-11T00:14:38.871Z,101626.69
2022-08-11T00:15:28.740Z,101625.63
2022-08-11T00:16:24.725Z,101630.44
2022-08-11T00:17:14.595Z,101628.28
2022-08-11T00:18:03.635Z,101627.72
2022-08-11T00:18:56.000Z,101623.66
2022-08-11T00:20:13.672Z,101628.19
2022-08-11T00:21:00.241Z,101622.59
2022-08-11T00:22:04.912Z,101624.72
2022-08-11T00:22:53.549Z,101625.78
2022-08-11T00:23:43.922Z,101621.75
2022-08-11T00:24:50.955Z,101629.78
2022-08-11T00:25:46.581Z,101623.88
2022-08-11T00:26:36.511Z,101627.06
2022-08-11T00:27:35.105Z,101628.69
2022-08-11T00:28:34.192Z,101625.44
2022-08-11T00:29:22.611Z,101634.81
2022-08-11T00:30:13.247Z,101625.41
2022-08-11T00:31:08.289Z,101628.34
2022-08-11T00:31:57.437Z,101630.19
2022-08-11T00:32:54.669Z,101628.59
2022-08-11T00:33:45.550Z,101619.72
2022-08-11T00:34:37.396Z,101624.84
2022-08-11T00:35:55.338Z,101621.63
2022-08-11T00:36:50.386Z,101621.03
2022-08-11T00:37:39.205Z,101630.97
2022-08-11T00:38:33.470Z,101627.25
2022-08-11T00:39:29.081Z,101622.09
2022-08-11T00:40:29.040Z,101625.63
2022-08-11T00:41:18.565Z,101624.25
2022-08-11T00:42:13.912Z,101622.88
2022-08-11T00:43:31.729Z,101621.25
2022-08-11T00:44:28.742Z,101623.66
2022-08-11T00:45:28.944Z,101621.22
2022-08-11T00:46:25.333Z,101622.53
2022-08-11T00:47:34.465Z,101623.84
2022-08-11T00:48:45.366Z,101625.97
2022-08-11T00:50:02.985Z,101620.59
2022-08-11T00:51:09.962Z,101627.28
2022-08-11T00:52:09.252Z,101619.50
2022-08-11T00:52:58.917Z,101618.13
2022-08-11T00:53:46.895Z,101615.47
2022-08-11T00:54:39.519Z,101622.13
2022-08-11T00:55:55.814Z,101623.47
2022-08-11T00:57:36.629Z,101623.69
2022-08-11T00:59:03.674Z,101623.63
2022-08-11T01:00:12.683Z,101622.00
2022-08-11T01:01:10.704Z,101616.63
2022-08-11T01:02:12.196Z,101620.63
2022-08-11T01:03:30.879Z,101622.00
2022-08-11T01:05:12.928Z,101625.19
2022-08-11T01:06:18.290Z,101622.22
2022-08-11T01:08:01.745Z,101623.00
2022-08-11T01:09:31.399Z,101631.81
2022-08-11T01:11:05.193Z,101623.75
2022-08-11T01:12:24.722Z,101626.91
2022-08-11T01:13:49.715Z,101625.28
2022-08-11T01:14:55.838Z,101623.69
2022-08-11T01:16:04.010Z,101625.25
2022-08-11T01:17:21.080Z,101626.31
2022-08-11T01:18:37.694Z,101623.88
2022-08-11T01:20:46.149Z,101624.38
2022-08-11T01:21:46.460Z,101620.34
2022-08-11T01:23:12.553Z,101617.91
2022-08-11T01:24:39.346Z,101614.09
2022-08-11T01:26:07.556Z,101617.03
2022-08-11T01:27:00.148Z,101626.69
2022-08-11T01:28:20.406Z,101616.72
2022-08-11T01:29:25.512Z,101620.72
2022-08-11T01:30:43.886Z,101617.44
2022-08-11T01:32:04.572Z,101612.09
2022-08-11T01:33:30.296Z,101612.59
2022-08-11T01:34:48.371Z,101619.28
2022-08-11T01:36:01.070Z,101631.84
2022-08-11T01:37:13.090Z,101627.00
2022-08-11T01:38:33.566Z,101625.38
2022-08-11T01:39:54.159Z,101626.41
2022-08-11T01:41:06.589Z,101625.88
2022-08-11T01:42:33.301Z,101625.38
2022-08-11T01:44:12.649Z,101622.94
2022-08-11T01:45:21.542Z,101619.38
2022-08-11T01:46:28.273Z,101620.19
2022-08-11T01:47:54.177Z,101617.53
2022-08-11T01:49:29.070Z,101620.47
2022-08-11T01:50:30.816Z,101624.44
2022-08-11T01:51:47.105Z,101620.69
2022-08-11T01:52:58.889Z,101617.19
2022-08-11T01:54:09.748Z,101624.19
2022-08-11T01:55:18.517Z,101613.94
2022-08-11T01:56:20.228Z,101620.63
2022-08-11T01:57:21.010Z,101625.16
2022-08-11T01:58:43.824Z,101626.47
2022-08-11T01:59:52.074Z,101624.06
2022-08-11T02:01:23.410Z,101623.72
2022-08-11T02:02:49.982Z,101617.22
2022-08-11T02:03:45.873Z,101626.88
2022-08-11T02:04:58.379Z,101625.50
2022-08-11T02:06:02.380Z,101632.50
2022-08-11T02:07:02.424Z,101633.00
2022-08-11T02:08:14.915Z,101624.66
2022-08-11T02:09:27.803Z,101629.25
2022-08-11T02:10:50.660Z,101629.75
2022-08-11T02:11:39.152Z,101631.84
2022-08-11T02:12:27.528Z,101631.31
2022-08-11T02:13:37.314Z,101634.47
2022-08-11T02:15:04.499Z,101632.28
2022-08-11T02:16:18.388Z,101625.56
2022-08-11T02:17:19.169Z,101626.34
2022-08-11T02:18:16.816Z,101625.22
2022-08-11T02:19:45.271Z,101626.53
2022-08-11T02:21:04.178Z,101626.53
2022-08-11T02:22:18.812Z,101632.69
2022-08-11T02:24:04.030Z,101626.53
2022-08-11T02:25:11.187Z,101625.94
2022-08-11T02:26:05.428Z,101620.59
2022-08-11T02:27:13.373Z,101622.47
2022-08-11T02:28:38.360Z,101625.38
2022-08-11T02:29:49.260Z,101624.56
2022-08-11T02:31:06.329Z,101627.19
2022-08-11T02:32:32.859Z,101630.66
2022-08-11T02:33:30.362Z,101636.25
2022-08-11T02:34:39.206Z,101634.06
2022-08-11T02:35:42.765Z,101634.84
2022-08-11T02:36:46.739Z,101627.06
2022-08-11T02:37:33.147Z,101631.06
2022-08-11T02:38:47.358Z,101632.91
2022-08-11T02:40:02.071Z,101641.19
2022-08-11T02:40:57.392Z,101635.03
2022-08-11T02:42:42.387Z,101631.78
2022-08-11T02:43:39.877Z,101630.06
2022-08-11T02:44:51.898Z,101638.34
2022-08-11T02:45:54.671Z,101634.28
2022-08-11T02:47:07.076Z,101636.38
2022-08-11T02:48:33.997Z,101634.53
2022-08-11T02:50:06.570Z,101630.22
2022-08-11T02:51:22.111Z,101630.94
2022-08-11T02:52:19.942Z,101637.34
2022-08-11T02:53:25.428Z,101627.94
2022-08-11T02:54:22.609Z,101638.63
2022-08-11T02:55:57.390Z,101625.19
2022-08-11T02:57:12.138Z,101631.31
2022-08-11T02:58:16.489Z,101635.53
2022-08-11T02:59:51.681Z,101636.59
2022-08-11T03:01:11.501Z,101631.50
2022-08-11T03:02:27.751Z,101635.22
2022-08-11T03:03:47.292Z,101638.38
2022-08-11T03:05:00.794Z,101638.13
2022-08-11T03:06:01.123Z,101634.06
2022-08-11T03:07:28.551Z,101622.78
2022-08-11T03:08:41.175Z,101632.13
2022-08-11T03:09:47.269Z,101629.44
2022-08-11T03:11:08.534Z,101635.03
2022-08-11T03:12:30.354Z,101634.44
2022-08-11T03:13:48.071Z,101631.47
2022-08-11T03:15:10.706Z,101634.69
2022-08-11T03:16:48.307Z,101628.22
2022-08-11T03:17:42.832Z,101630.19
2022-08-11T03:18:51.392Z,101632.72
2022-08-11T03:19:46.451Z,101633.81
2022-08-11T03:21:12.901Z,101633.22
2022-08-11T03:22:14.508Z,101630.56
2022-08-11T03:23:24.803Z,101632.09
2022-08-11T03:24:21.215Z,101630.47
2022-08-11T03:25:32.277Z,101627.19
2022-08-11T03:26:41.512Z,101620.38
2022-08-11T03:27:46.163Z,101627.69
2022-08-11T03:29:07.994Z,101621.53
2022-08-11T03:30:12.987Z,101624.69
2022-08-11T03:31:05.707Z,101631.06
2022-08-11T03:32:06.479Z,101624.59
2022-08-11T03:33:37.965Z,101627.50
2022-08-11T03:34:32.706Z,101630.41
2022-08-11T03:35:21.566Z,101633.31
2022-08-11T03:36:57.606Z,101620.19
2022-08-11T03:38:07.801Z,101632.97
2022-08-11T03:39:03.091Z,101628.13
2022-08-11T03:40:07.772Z,101629.97
2022-08-11T03:42:01.301Z,101624.75
2022-08-11T03:43:11.956Z,101626.38
2022-08-11T03:44:17.273Z,101631.50
2022-08-11T03:45:20.227Z,101631.97
2022-08-11T03:46:27.300Z,101631.38
2022-08-11T03:47:37.166Z,101628.72
2022-08-11T03:48:42.980Z,101630.59
2022-08-11T03:50:08.617Z,101624.66
2022-08-11T03:51:25.490Z,101629.19
2022-08-11T03:52:38.756Z,101635.94
2022-08-11T03:53:51.820Z,101619.31
2022-08-11T03:55:10.883Z,101631.03
2022-08-11T03:56:19.105Z,101631.28
2022-08-11T03:57:43.873Z,101631.53
2022-08-11T03:58:41.584Z,101631.28
2022-08-11T04:00:11.046Z,101627.00
2022-08-11T04:01:20.316Z,101638.72
2022-08-11T04:02:06.862Z,101634.66
2022-08-11T04:03:12.067Z,101637.34
2022-08-11T04:04:07.262Z,101631.38
2022-08-11T04:05:26.973Z,101632.66
2022-08-11T04:06:50.008Z,101624.09
2022-08-11T04:07:57.983Z,101635.13
2022-08-11T04:09:21.247Z,101635.81
2022-08-11T04:10:26.138Z,101632.66
2022-08-11T04:11:31.180Z,101634.78
2022-08-11T04:12:51.698Z,101629.66
2022-08-11T04:14:24.699Z,101629.88
2022-08-11T04:15:46.193Z,101630.38
2022-08-11T04:17:01.212Z,101624.69
2022-08-11T04:18:35.353Z,101634.31
2022-08-11T04:19:43.403Z,101624.69
2022-08-11T04:20:48.221Z,101633.50
2022-08-11T04:21:52.483Z,101632.44
2022-08-11T04:23:03.483Z,101636.16
2022-08-11T04:24:35.948Z,101626.53
2022-08-11T04:26:06.255Z,101626.75
2022-08-11T04:27:45.356Z,101634.78
2022-08-11T04:28:57.699Z,101635.59
2022-08-11T04:30:13.135Z,101628.38
2022-08-11T04:31:11.447Z,101630.03
2022-08-11T04:32:29.085Z,101628.38
2022-08-11T04:33:48.243Z,101635.72
2022-08-11T04:35:06.074Z,101630.81
2022-08-11T04:36:09.473Z,101632.44
2022-08-11T04:37:17.709Z,101631.66
2022-08-11T04:38:33.356Z,101637.78
2022-08-11T04:40:00.623Z,101635.13
2022-08-11T04:41:14.265Z,101636.75
2022-08-11T04:42:57.316Z,101632.00
2022-08-11T04:44:21.497Z,101637.78
2022-08-11T04:45:28.259Z,101634.88
2022-08-11T04:46:26.597Z,101638.72
2022-08-11T04:47:59.732Z,101646.03
2022-08-11T04:49:34.083Z,101638.38
2022-08-11T04:51:00.718Z,101643.47
2022-08-11T04:52:26.147Z,101649.88
2022-08-11T04:54:14.958Z,101645.09
2022-08-11T04:55:23.222Z,101644.63
2022-08-11T04:56:42.853Z,101648.13
2022-08-11T04:58:17.538Z,101640.91
2022-08-11T04:59:38.733Z,101650.31
2022-08-11T05:00:57.347Z,101651.94
2022-08-11T05:02:18.056Z,101648.47
2022-08-11T05:03:40.110Z,101649.91
2022-08-11T05:04:45.134Z,101645.94
2022-08-11T05:05:56.328Z,101643.81
2022-08-11T05:07:27.435Z,101651.38
2022-08-11T05:08:45.136Z,101645.00
2022-08-11T05:09:50.154Z,101640.22
2022-08-11T05:11:06.651Z,101647.19
2022-08-11T05:12:15.133Z,101642.66
2022-08-11T05:13:24.069Z,101654.00
2022-08-11T05:14:29.482Z,101651.94
2022-08-11T05:16:08.096Z,101646.34
2022-08-11T05:17:18.695Z,101652.28
2022-08-11T05:18:42.233Z,101655.03
2022-08-11T05:19:48.053Z,101654.34
2022-08-11T05:21:05.844Z,101656.91
2022-08-11T05:22:16.652Z,101651.31
2022-08-11T05:23:25.251Z,101658.06
2022-08-11T05:24:57.765Z,101651.44
2022-08-11T05:26:43.909Z,101657.81
2022-08-11T05:27:35.288Z,101657.09
2022-08-11T05:28:59.224Z,101660.34
2022-08-11T05:30:26.239Z,101659.03
2022-08-11T05:31:33.847Z,101657.19
2022-08-11T05:32:41.539Z,101658.84
2022-08-11T05:34:04.488Z,101658.84
2022-08-11T05:34:54.400Z,101667.19
2022-08-11T05:36:01.876Z,101657.28
2022-08-11T05:37:25.035Z,101662.16
2022-08-11T05:38:52.625Z,101663.06
2022-08-11T05:40:08.520Z,101669.34
2022-08-11T05:41:16.447Z,101663.75
2022-08-11T05:42:30.264Z,101664.31
2022-08-11T05:43:36.388Z,101669.53
2022-08-11T05:44:42.192Z,101671.63
2022-08-11T05:45:57.363Z,101672.19
2022-08-11T05:47:09.870Z,101667.19
2022-08-11T05:48:17.485Z,101672.03
2022-08-11T05:49:28.715Z,101673.19
2022-08-11T05:50:40.500Z,101664.09
2022-08-11T05:51:57.184Z,101669.31
2022-08-11T05:53:12.184Z,101675.31
2022-08-11T05:54:28.720Z,101671.59
2022-08-11T05:55:35.654Z,101671.59
2022-08-11T05:56:54.321Z,101673.28
2022-08-11T05:57:51.073Z,101676.31
2022-08-11T05:58:44.406Z,101676.41
2022-08-11T05:59:33.165Z,101673.28
2022-08-11T06:00:20.509Z,101681.06
2022-08-11T06:01:09.177Z,101680.56
2022-08-11T06:02:08.593Z,101679.00
2022-08-11T06:03:03.941Z,101677.72
2022-08-11T06:04:12.258Z,101679.09
2022-08-11T06:05:01.273Z,101667.91
2022-08-11T06:05:48.137Z,101675.19
2022-08-11T06:06:45.169Z,101662.88
2022-08-11T06:07:48.475Z,101675.53
2022-08-11T06:08:36.342Z,101671.31
2022-08-11T06:09:37.934Z,101672.94
2022-08-11T06:10:36.259Z,101668.69
2022-08-11T06:11:43.553Z,101674.06
2022-08-11T06:12:37.281Z,101667.72
2022-08-11T06:13:27.200Z,101665.03
2022-08-11T06:14:15.584Z,101674.78
2022-08-11T06:15:05.908Z,101675.09
2022-08-11T06:15:55.782Z,101674.59
2022-08-11T06:16:47.566Z,101677.84
2022-08-11T06:17:45.508Z,101678.47
2022-08-11T06:18:34.120Z,101671.56
2022-08-11T06:19:23.424Z,101674.31
2022-08-11T06:20:12.952Z,101672.25
2022-08-11T06:21:00.808Z,101671.53
2022-08-11T06:21:49.622Z,101673.94
2022-08-11T06:22:37.029Z,101662.72
2022-08-11T06:23:31.797Z,101666.34
2022-08-11T06:24:19.356Z,101667.66
2022-08-11T06:25:09.669Z,101677.59
2022-08-11T06:26:00.183Z,101669.34
2022-08-11T06:28:00.346Z,101666.75
2022-08-11T06:28:48.958Z,101668.97
2022-08-11T06:29:47.834Z,101667.47
2022-08-11T06:30:45.616Z,101668.91
2022-08-11T06:31:34.539Z,101669.47
2022-08-11T06:32:26.941Z,101672.69
2022-08-11T06:33:19.009Z,101668.69
2022-08-11T06:34:08.504Z,101672.00
2022-08-11T06:35:23.472Z,101670.72
2022-08-11T06:36:29.549Z,101676.38
2022-08-11T06:37:27.980Z,101671.03
2022-08-11T06:38:55.527Z,101670.53
2022-08-11T06:39:56.687Z,101663.63
2022-08-11T06:41:22.148Z,101678.75
2022-08-11T06:42:26.707Z,101678.00
2022-08-11T06:43:28.653Z,101675.84
2022-08-11T06:44:27.902Z,101675.66
2022-08-11T06:45:48.539Z,101676.59
2022-08-11T06:46:38.937Z,101675.53
2022-08-11T06:47:28.506Z,101683.13
2022-08-11T06:48:23.160Z,101685.53
2022-08-11T06:49:32.145Z,101679.13
2022-08-11T06:50:40.252Z,101683.47
2022-08-11T06:51:32.675Z,101671.69
2022-08-11T06:52:35.784Z,101675.50
2022-08-11T06:53:23.680Z,101674.75
2022-08-11T06:54:13.915Z,101675.81
2022-08-11T06:55:58.039Z,101672.38
2022-08-11T06:56:47.206Z,101673.25
2022-08-11T06:57:55.957Z,101669.25
2022-08-11T06:59:01.507Z,101674.94
2022-08-11T07:00:08.092Z,101670.13
2022-08-11T07:00:59.976Z,101670.38
2022-08-11T07:02:12.192Z,101676.28
2022-08-11T07:03:08.488Z,101671.50
2022-08-11T07:04:05.879Z,101679.03
2022-08-11T07:05:22.767Z,101673.69
2022-08-11T07:06:50.667Z,101667.25
2022-08-11T07:08:39.124Z,101673.72
2022-08-11T07:10:38.138Z,101672.13
2022-08-11T07:12:08.213Z,101675.38
2022-08-11T07:13:44.263Z,101671.63
2022-08-11T07:14:46.395Z,101655.75
2022-08-11T07:16:08.960Z,101675.41
2022-08-11T07:16:51.956Z,101668.41
2022-08-11T07:17:49.308Z,101671.38
2022-08-11T07:18:57.023Z,101678.09
2022-08-11T07:20:13.758Z,101674.31
2022-08-11T07:22:01.599Z,101666.25
2022-08-11T07:23:15.912Z,101674.31
2022-08-11T07:24:58.725Z,101669.19
2022-08-11T07:26:02.252Z,101671.03
2022-08-11T07:27:13.913Z,101667.81
2022-08-11T07:28:29.457Z,101668.00
2022-08-11T07:29:16.898Z,101668.25
2022-08-11T07:30:08.727Z,101672.56
2022-08-11T07:31:03.053Z,101670.94
2022-08-11T07:31:54.319Z,101674.41
2022-08-11T07:32:52.591Z,101672.72
2022-08-11T07:34:07.299Z,101663.47
2022-08-11T07:35:07.037Z,101666.66
2022-08-11T07:35:57.838Z,101660.97
2022-08-11T07:36:59.559Z,101660.69
2022-08-11T07:38:01.755Z,101664.56
2022-08-11T07:38:54.533Z,101661.31
2022-08-11T07:39:44.471Z,101653.63
2022-08-11T07:40:33.490Z,101665.50
2022-08-11T07:41:23.939Z,101666.97
2022-08-11T07:42:14.868Z,101665.25
2022-08-11T07:43:03.916Z,101657.72
2022-08-11T07:43:54.945Z,101663.69
2022-08-11T07:45:03.005Z,101656.16
2022-08-11T07:46:11.369Z,101660.91
2022-08-11T07:47:19.271Z,101657.91
2022-08-11T07:48:26.310Z,101653.25
2022-08-11T07:49:31.912Z,101657.44
2022-08-11T07:50:37.879Z,101654.50
2022-08-11T07:51:43.506Z,101657.19
2022-08-11T07:52:34.569Z,101655.06
2022-08-11T07:53:22.188Z,101660.38
2022-08-11T07:54:16.972Z,101655.47
2022-08-11T07:55:14.949Z,101659.66
2022-08-11T07:56:02.435Z,101654.06
2022-08-11T07:56:55.012Z,101657.22
2022-08-11T07:58:19.599Z,101658.97
2022-08-11T08:00:03.310Z,101660.72
2022-08-11T08:01:01.797Z,101662.56
2022-08-11T08:02:09.919Z,101655.19
2022-08-11T08:03:18.130Z,101655.31
2022-08-11T08:04:26.213Z,101660.16
2022-08-11T08:05:35.964Z,101659.06
2022-08-11T08:06:42.571Z,101659.72
2022-08-11T08:07:47.602Z,101662.91
2022-08-11T08:08:55.794Z,101660.09
2022-08-11T08:10:02.978Z,101660.88
2022-08-11T08:11:08.611Z,101660.59
2022-08-11T08:12:17.401Z,101658.19
2022-08-11T08:13:25.243Z,101661.69
2022-08-11T08:14:31.892Z,101660.28
2022-08-11T08:15:41.213Z,101659.19
2022-08-11T08:16:49.422Z,101662.31
2022-08-11T08:18:09.629Z,101661.19
2022-08-11T08:18:58.545Z,101665.75
2022-08-11T08:19:48.688Z,101667.13
2022-08-11T08:20:37.283Z,101662.50
2022-08-11T08:21:24.308Z,101662.63
2022-08-11T08:22:38.404Z,101665.13
2022-08-11T08:23:34.547Z,101663.81
2022-08-11T08:24:22.062Z,101663.28
2022-08-11T08:25:09.987Z,101669.53
2022-08-11T08:25:57.350Z,101664.31
2022-08-11T08:27:00.350Z,101663.44
2022-08-11T08:27:50.013Z,101668.34
2022-08-11T08:28:37.254Z,101664.63
2022-08-11T08:29:51.276Z,101673.03
2022-08-11T08:30:48.167Z,101654.28
2022-08-11T08:31:35.281Z,101663.16
2022-08-11T08:32:23.352Z,101659.69
2022-08-11T08:33:13.635Z,101660.16
2022-08-11T08:34:00.681Z,101657.91
2022-08-11T08:34:51.018Z,101663.88
2022-08-11T08:35:55.606Z,101661.16
2022-08-11T08:36:45.877Z,101657.97
2022-08-11T08:37:45.393Z,101662.78
2022-08-11T08:38:34.173Z,101658.16
2022-08-11T08:39:23.481Z,101661.06
2022-08-11T08:40:11.007Z,101658.47
2022-08-11T08:41:00.392Z,101663.72
2022-08-11T08:41:53.053Z,101666.13
2022-08-11T08:42:47.477Z,101663.53
2022-08-11T08:43:48.610Z,101660.44
2022-08-11T08:44:44.679Z,101661.78
2022-08-11T08:45:37.150Z,101669.94
2022-08-11T08:46:33.038Z,101667.06
2022-08-11T08:47:42.233Z,101666.91
2022-08-11T08:48:31.330Z,101673.44
2022-08-11T08:49:27.836Z,101667.16
2022-08-11T08:50:22.234Z,101670.75
2022-08-11T08:52:01.291Z,101668.19
2022-08-11T08:52:50.626Z,101664.56
2022-08-11T08:53:53.728Z,101664.31
2022-08-11T08:54:50.185Z,101666.69
2022-08-11T08:55:37.050Z,101662.59
2022-08-11T08:56:30.087Z,101661.38
2022-08-11T08:57:20.002Z,101672.31
2022-08-11T08:58:08.167Z,101662.53
2022-08-11T08:59:00.846Z,101667.78
2022-08-11T08:59:51.449Z,101669.41
2022-08-11T09:00:44.223Z,101665.03
2022-08-11T09:01:41.007Z,101663.94
2022-08-11T09:02:34.695Z,101668.44
2022-08-11T09:03:41.852Z,101664.09
2022-08-11T09:04:31.892Z,101673.75
2022-08-11T09:05:20.325Z,101669.75
2022-08-11T09:06:07.408Z,101672.72
2022-08-11T09:06:58.859Z,101668.41
2022-08-11T09:07:51.023Z,101665.81
2022-08-11T09:08:40.736Z,101668.53
2022-08-11T09:09:27.950Z,101666.66
2022-08-11T09:10:20.823Z,101663.00
2022-08-11T09:11:27.192Z,101673.28
2022-08-11T09:12:16.932Z,101669.75
2022-08-11T09:13:23.418Z,101666.88
2022-08-11T09:14:15.106Z,101664.13
2022-08-11T09:15:05.684Z,101678.72
2022-08-11T09:15:56.316Z,101668.50
2022-08-11T09:16:45.021Z,101668.66
2022-08-11T09:17:51.566Z,101668.19
2022-08-11T09:18:40.037Z,101675.56
2022-08-11T09:19:28.408Z,101670.44
2022-08-11T09:20:26.793Z,101665.97
2022-08-11T09:21:15.518Z,101661.78
2022-08-11T09:22:41.191Z,101662.59
2022-08-11T09:24:07.882Z,101656.81
2022-08-11T09:25:16.236Z,101662.78
2022-08-11T09:26:22.226Z,101658.75
2022-08-11T09:27:18.155Z,101657.16
2022-08-11T09:28:07.470Z,101660.66
2022-08-11T09:28:55.227Z,101661.94
2022-08-11T09:29:41.847Z,101658.75
2022-08-11T09:30:29.240Z,101658.59
2022-08-11T09:31:17.636Z,101653.78
2022-08-11T09:32:07.050Z,101658.75
2022-08-11T09:32:58.134Z,101657.16
2022-08-11T09:33:46.359Z,101658.09
2022-08-11T09:34:37.007Z,101655.56
2022-08-11T09:35:29.283Z,101664.84
2022-08-11T09:36:38.446Z,101653.31
2022-08-11T09:37:55.850Z,101661.78
2022-08-11T09:39:03.592Z,101654.41
2022-08-11T09:40:09.792Z,101649.91
2022-08-11T09:41:00.270Z,101658.25
2022-08-11T09:42:01.943Z,101647.38
2022-08-11T09:43:10.744Z,101648.81
2022-08-11T09:44:19.087Z,101646.81
2022-08-11T09:45:07.856Z,101646.97
2022-08-11T09:45:57.559Z,101647.88
2022-08-11T09:46:44.785Z,101652.34
2022-08-11T09:47:32.107Z,101651.41
2022-08-11T09:48:24.714Z,101645.16
2022-08-11T09:49:13.555Z,101649.06
2022-08-11T09:50:04.507Z,101654.66
2022-08-11T09:50:54.210Z,101648.75
2022-08-11T09:51:42.037Z,101643.47
2022-08-11T09:53:16.884Z,101651.31
2022-08-11T09:54:03.875Z,101647.63
2022-08-11T09:54:53.354Z,101643.59
2022-08-11T09:55:40.858Z,101656.03
2022-08-11T09:56:48.022Z,101642.38
2022-08-11T09:57:55.139Z,101649.69
2022-08-11T09:58:44.523Z,101647.94
2022-08-11T09:59:32.617Z,101640.63
2022-08-11T10:00:20.831Z,101642.09
2022-08-11T10:01:07.804Z,101643.34
2022-08-11T10:02:03.867Z,101643.69
2022-08-11T10:02:55.259Z,101647.69
2022-08-11T10:03:43.492Z,101644.94
2022-08-11T10:04:42.741Z,101645.56
2022-08-11T10:05:49.255Z,101643.13
2022-08-11T10:06:58.010Z,101645.84
2022-08-11T10:07:50.259Z,101645.59
2022-08-11T10:08:40.567Z,101635.47
2022-08-11T10:09:43.754Z,101634.88
2022-08-11T10:10:36.202Z,101632.16
2022-08-11T10:11:25.717Z,101634.56
2022-08-11T10:12:24.421Z,101633.31
2022-08-11T10:14:31.392Z,101633.13
2022-08-11T10:14:45.984Z,101631.13
2022-08-11T10:15:34.803Z,101638.44
2022-08-11T10:16:27.871Z,101633.31
2022-08-11T10:17:18.543Z,101638.25
2022-08-11T10:18:35.481Z,101634.75
2022-08-11T10:19:24.149Z,101638.53
2022-08-11T10:20:11.849Z,101628.59
2022-08-11T10:21:01.489Z,101623.59
2022-08-11T10:22:12.469Z,101618.94
2022-08-11T10:23:19.313Z,101616.53
2022-08-11T10:24:26.589Z,101610.28
2022-08-11T10:25:34.210Z,101614.13
2022-08-11T10:26:42.474Z,101629.28
2022-08-11T10:28:16.611Z,101622.69
2022-08-11T10:28:55.950Z,101621.81
2022-08-11T10:30:02.823Z,101622.94
2022-08-11T10:31:13.593Z,101616.72
2022-08-11T10:32:21.553Z,101620.06
2022-08-11T10:33:37.814Z,101623.22
2022-08-11T10:34:29.151Z,101625.72
2022-08-11T10:35:17.553Z,101618.88
2022-08-11T10:36:06.128Z,101613.69
2022-08-11T10:37:03.580Z,101620.13
2022-08-11T10:38:06.183Z,101613.00
2022-08-11T10:38:58.327Z,101618.53
2022-08-11T10:39:46.672Z,101617.34
2022-08-11T10:40:35.774Z,101618.72
2022-08-11T10:42:06.947Z,101616.06
2022-08-11T10:43:06.801Z,101609.72
2022-08-11T10:44:01.779Z,101612.78
2022-08-11T10:44:57.273Z,101609.19
2022-08-11T10:46:05.362Z,101613.53
2022-08-11T10:47:11.297Z,101603.16
2022-08-11T10:47:59.146Z,101604.28
2022-08-11T10:48:47.024Z,101602.66
2022-08-11T10:49:34.271Z,101604.69
2022-08-11T10:50:40.299Z,101600.88
2022-08-11T10:51:50.854Z,101601.34
2022-08-11T10:52:59.461Z,101600.13
2022-08-11T10:54:12.880Z,101599.16
2022-08-11T10:55:18.167Z,101602.94
2022-08-11T10:56:25.592Z,101607.34
2022-08-11T10:57:34.193Z,101594.28
2022-08-11T10:58:41.376Z,101599.63
2022-08-11T10:59:30.274Z,101597.56
2022-08-11T11:00:18.190Z,101593.03
2022-08-11T11:01:05.325Z,101591.69
2022-08-11T11:01:53.831Z,101597.81
2022-08-11T11:02:43.232Z,101583.50
2022-08-11T11:03:34.428Z,101590.22
2022-08-11T11:04:41.666Z,101584.19
2022-08-11T11:05:32.661Z,101584.78
2022-08-11T11:06:44.644Z,101582.50
2022-08-11T11:07:44.200Z,101576.91
2022-08-11T11:08:52.094Z,101575.41
2022-08-11T11:09:58.456Z,101571.16
2022-08-11T11:10:45.260Z,101574.50
2022-08-11T11:11:56.537Z,101570.41
2022-08-11T11:13:05.824Z,101568.81
2022-08-11T11:14:11.422Z,101571.91
2022-08-11T11:15:21.162Z,101564.66
2022-08-11T11:16:29.254Z,101561.59
2022-08-11T11:17:57.572Z,101565.34
2022-08-11T11:18:45.361Z,101564.34
2022-08-11T11:19:53.641Z,101556.75
2022-08-11T11:20:59.958Z,101563.81
2022-08-11T11:21:54.747Z,101555.84
2022-08-11T11:22:47.983Z,101555.38
2022-08-11T11:24:05.188Z,101557.47
2022-08-11T11:25:08.218Z,101541.03
2022-08-11T11:26:30.949Z,101547.44
2022-08-11T11:27:25.713Z,101546.97
2022-08-11T11:28:28.257Z,101551.31
2022-08-11T11:29:46.120Z,101547.78
2022-08-11T11:30:49.588Z,101548.47
2022-08-11T11:32:00.280Z,101552.09
2022-08-11T11:34:06.746Z,101546.97
2022-08-11T11:35:01.295Z,101548.81
2022-08-11T11:36:15.402Z,101549.25
2022-08-11T11:37:03.317Z,101545.25
2022-08-11T11:38:00.954Z,101547.09
2022-08-11T11:38:52.255Z,101537.28
2022-08-11T11:39:39.884Z,101537.16
2022-08-11T11:40:32.004Z,101535.34
2022-08-11T11:41:24.988Z,101540.03
2022-08-11T11:42:13.464Z,101537.50
2022-08-11T11:43:01.637Z,101540.38
2022-08-11T11:43:48.652Z,101538.66
2022-08-11T11:44:38.895Z,101549.25
2022-08-11T11:45:26.046Z,101540.16
2022-08-11T11:46:13.950Z,101535.34
2022-08-11T11:47:02.367Z,101534.69
2022-08-11T11:47:52.506Z,101537.19
2022-08-11T11:48:42.027Z,101534.91
2022-08-11T11:49:32.266Z,101531.47
2022-08-11T11:50:31.840Z,101528.03
2022-08-11T11:51:21.722Z,101529.84
2022-08-11T11:52:14.426Z,101526.78
2022-08-11T11:53:06.300Z,101532.84
2022-08-11T11:53:54.888Z,101540.59
2022-08-11T11:54:42.842Z,101528.50
2022-08-11T11:55:30.767Z,101537.84
2022-08-11T11:56:19.324Z,101529.19
2022-08-11T11:57:25.400Z,101535.47
2022-08-11T11:58:32.164Z,101521.44
2022-08-11T11:59:40.334Z,101526.94
2022-08-11T12:00:47.943Z,101520.31
2022-08-11T12:01:35.638Z,101514.63
2022-08-11T12:02:22.599Z,101514.63
2022-08-11T12:03:12.050Z,101521.00
2022-08-11T12:04:00.564Z,101523.38
2022-08-11T12:04:48.684Z,101508.66
2022-08-11T12:05:37.671Z,101514.59
2022-08-11T12:06:25.853Z,101517.44
2022-08-11T12:07:31.755Z,101517.41
2022-08-11T12:08:24.591Z,101513.66
2022-08-11T12:09:18.312Z,101507.28
2022-08-11T12:10:07.465Z,101513.78
2022-08-11T12:11:18.038Z,101519.63
2022-08-11T12:12:23.805Z,101507.19
2022-08-11T12:13:31.214Z,101510.56
2022-08-11T12:14:21.441Z,101503.25
2022-08-11T12:15:09.265Z,101506.69